Terminal Aerodrome Forecast
Issued by NWS Pittsburgh, PA

Current Version | Previous Version | Text Only | Print | Product List | Glossary Off
Versions: 1 2 3 4 5 6 7 8 9 10 11 12 13 14 15 16 17 18 19 20 21 22 23 24 25 26 27 28 29 30 31 32 33 34 35 36 37 38

000
FTUS41 KPBZ 272000 AAD
TAFPIT
TAF AMD
KPIT 272057Z 2721/2824 23012G25KT 4SM TSRA FEW010 BKN040CB OVC080
     FM272300 22009KT P6SM VCSH FEW030 BKN060 OVC080
     FM280800 25006KT P6SM VCSH BKN020=

USA.gov is the U.S. government's official web portal to all federal, state and local government web resources and services.